Colebrook, Connecticut
Current Conditions -  °F | °C
As of 6:51 AM on Sunday 25 Jan 2015 (Local Time) from KBDL Reporting Station
Broken Clouds Broken Clouds  
Wind Chill: 25°   Ceiling: 4300
Heat Index: 33°   Visibility: 10mi
Dew Point: 26°   Wind: 10mph
Humidity: 75%   Direction: 200°SSW
Pressure: 29.54"   Gusts: NA
Location:  41.99°N, 73.1°W
Report Text: KBDL 251151Z 20009KT 10SM BKN043 BKN070 01/M03 A2954 RMK AO2 SLP006 4/005 70024 T00061033 10011 21006 53021 $
Loading
Personal Weather Stations






























Interactive Weather Map New forecast layout! Learn more

10-Day Weather Forecast

Advertisements
Track Severe Weather on mobile